sensor_id;sensor_type;location;lat;lon;timestamp;P1;durP1;ratioP1;P2;durP2;ratioP2
16963;SDS011;8598;50.508;10.436;2023-08-17T00:00:06;5.30;;;3.57;;
16963;SDS011;8598;50.508;10.436;2023-08-17T00:02:35;8.37;;;3.70;;
16963;SDS011;8598;50.508;10.436;2023-08-17T00:05:01;6.43;;;3.27;;
16963;SDS011;8598;50.508;10.436;2023-08-17T00:07:28;8.67;;;3.33;;
16963;SDS011;8598;50.508;10.436;2023-08-17T00:09:55;4.67;;;2.80;;
16963;SDS011;8598;50.508;10.436;2023-08-17T00:12:22;5.63;;;3.30;;
16963;SDS011;8598;50.508;10.436;2023-08-17T00:14:48;4.80;;;3.00;;
16963;SDS011;8598;50.508;10.436;2023-08-17T00:17:16;3.23;;;2.93;;
16963;SDS011;8598;50.508;10.436;2023-08-17T00:19:43;8.13;;;3.30;;
16963;SDS011;8598;50.508;10.436;2023-08-17T00:22:10;6.17;;;3.63;;
16963;SDS011;8598;50.508;10.436;2023-08-17T00:24:36;5.77;;;3.33;;
16963;SDS011;8598;50.508;10.436;2023-08-17T00:27:03;5.27;;;4.30;;
16963;SDS011;8598;50.508;10.436;2023-08-17T00:29:30;20.63;;;4.77;;
16963;SDS011;8598;50.508;10.436;2023-08-17T00:31:57;9.40;;;3.40;;
16963;SDS011;8598;50.508;10.436;2023-08-17T00:34:25;4.23;;;2.87;;
16963;SDS011;8598;50.508;10.436;2023-08-17T00:36:52;5.10;;;3.73;;
16963;SDS011;8598;50.508;10.436;2023-08-17T00:39:19;7.23;;;4.50;;
16963;SDS011;8598;50.508;10.436;2023-08-17T00:41:46;10.10;;;4.33;;
16963;SDS011;8598;50.508;10.436;2023-08-17T00:44:12;4.97;;;3.97;;
16963;SDS011;8598;50.508;10.436;2023-08-17T00:46:39;6.23;;;3.10;;
16963;SDS011;8598;50.508;10.436;2023-08-17T00:49:06;6.20;;;3.53;;
16963;SDS011;8598;50.508;10.436;2023-08-17T00:51:34;5.90;;;3.17;;
16963;SDS011;8598;50.508;10.436;2023-08-17T00:54:01;5.87;;;2.73;;
16963;SDS011;8598;50.508;10.436;2023-08-17T00:56:28;3.43;;;3.10;;
16963;SDS011;8598;50.508;10.436;2023-08-17T00:58:55;4.37;;;3.53;;
16963;SDS011;8598;50.508;10.436;2023-08-17T01:01:22;3.37;;;3.07;;
16963;SDS011;8598;50.508;10.436;2023-08-17T01:03:49;5.40;;;3.40;;
16963;SDS011;8598;50.508;10.436;2023-08-17T01:06:16;3.97;;;3.10;;
16963;SDS011;8598;50.508;10.436;2023-08-17T01:08:45;6.90;;;3.50;;
16963;SDS011;8598;50.508;10.436;2023-08-17T01:11:14;3.33;;;3.03;;
16963;SDS011;8598;50.508;10.436;2023-08-17T01:13:49;3.00;;;2.70;;
16963;SDS011;8598;50.508;10.436;2023-08-17T01:16:24;3.40;;;3.10;;
16963;SDS011;8598;50.508;10.436;2023-08-17T01:18:55;6.00;;;3.07;;
16963;SDS011;8598;50.508;10.436;2023-08-17T01:21:28;4.63;;;3.60;;
16963;SDS011;8598;50.508;10.436;2023-08-17T01:24:05;3.97;;;3.37;;
16963;SDS011;8598;50.508;10.436;2023-08-17T01:26:33;7.13;;;4.10;;
16963;SDS011;8598;50.508;10.436;2023-08-17T01:28:59;3.30;;;3.00;;
16963;SDS011;8598;50.508;10.436;2023-08-17T01:31:27;6.10;;;3.73;;
16963;SDS011;8598;50.508;10.436;2023-08-17T01:34:00;4.97;;;3.40;;
16963;SDS011;8598;50.508;10.436;2023-08-17T01:36:30;3.87;;;3.37;;
16963;SDS011;8598;50.508;10.436;2023-08-17T01:39:01;3.13;;;2.80;;
16963;SDS011;8598;50.508;10.436;2023-08-17T01:41:30;3.80;;;3.43;;
16963;SDS011;8598;50.508;10.436;2023-08-17T01:43:59;5.53;;;2.87;;
16963;SDS011;8598;50.508;10.436;2023-08-17T01:46:29;4.57;;;3.47;;
16963;SDS011;8598;50.508;10.436;2023-08-17T01:48:57;3.43;;;2.77;;
16963;SDS011;8598;50.508;10.436;2023-08-17T01:51:24;4.37;;;3.00;;
16963;SDS011;8598;50.508;10.436;2023-08-17T01:53:51;3.40;;;2.80;;
16963;SDS011;8598;50.508;10.436;2023-08-17T01:56:18;3.87;;;2.97;;
16963;SDS011;8598;50.508;10.436;2023-08-17T01:58:46;3.13;;;2.80;;
16963;SDS011;8598;50.508;10.436;2023-08-17T02:01:13;5.87;;;2.60;;
16963;SDS011;8598;50.508;10.436;2023-08-17T02:03:39;4.97;;;3.87;;
16963;SDS011;8598;50.508;10.436;2023-08-17T02:06:06;6.27;;;3.40;;
16963;SDS011;8598;50.508;10.436;2023-08-17T02:08:33;3.80;;;3.40;;
16963;SDS011;8598;50.508;10.436;2023-08-17T02:11:00;4.03;;;2.97;;
16963;SDS011;8598;50.508;10.436;2023-08-17T02:13:27;6.57;;;3.63;;
16963;SDS011;8598;50.508;10.436;2023-08-17T02:15:55;3.20;;;2.90;;
16963;SDS011;8598;50.508;10.436;2023-08-17T02:18:21;3.17;;;2.87;;
16963;SDS011;8598;50.508;10.436;2023-08-17T02:20:48;5.50;;;3.70;;
16963;SDS011;8598;50.508;10.436;2023-08-17T02:23:15;5.83;;;4.03;;
16963;SDS011;8598;50.508;10.436;2023-08-17T02:25:41;7.23;;;3.60;;
16963;SDS011;8598;50.508;10.436;2023-08-17T02:28:08;7.00;;;4.17;;
16963;SDS011;8598;50.508;10.436;2023-08-17T02:30:35;6.10;;;4.33;;
16963;SDS011;8598;50.508;10.436;2023-08-17T02:33:03;7.27;;;4.23;;
16963;SDS011;8598;50.508;10.436;2023-08-17T02:35:30;5.30;;;4.30;;
16963;SDS011;8598;50.508;10.436;2023-08-17T02:37:57;7.60;;;4.27;;
16963;SDS011;8598;50.508;10.436;2023-08-17T02:40:23;7.20;;;4.57;;
16963;SDS011;8598;50.508;10.436;2023-08-17T02:42:50;7.93;;;5.33;;
16963;SDS011;8598;50.508;10.436;2023-08-17T02:45:17;6.60;;;4.60;;
16963;SDS011;8598;50.508;10.436;2023-08-17T02:47:43;6.70;;;4.70;;
16963;SDS011;8598;50.508;10.436;2023-08-17T02:50:11;6.37;;;4.73;;
16963;SDS011;8598;50.508;10.436;2023-08-17T02:52:38;7.47;;;4.50;;
16963;SDS011;8598;50.508;10.436;2023-08-17T02:55:05;5.67;;;4.27;;
16963;SDS011;8598;50.508;10.436;2023-08-17T02:57:32;6.17;;;4.57;;
16963;SDS011;8598;50.508;10.436;2023-08-17T02:59:59;6.53;;;5.10;;
16963;SDS011;8598;50.508;10.436;2023-08-17T03:02:25;6.43;;;4.67;;
16963;SDS011;8598;50.508;10.436;2023-08-17T03:04:52;8.27;;;5.47;;
16963;SDS011;8598;50.508;10.436;2023-08-17T03:07:20;5.37;;;4.40;;
16963;SDS011;8598;50.508;10.436;2023-08-17T03:09:47;4.93;;;4.47;;
16963;SDS011;8598;50.508;10.436;2023-08-17T03:12:13;8.53;;;5.07;;
16963;SDS011;8598;50.508;10.436;2023-08-17T03:14:40;8.47;;;6.23;;
16963;SDS011;8598;50.508;10.436;2023-08-17T03:17:07;6.83;;;5.43;;
16963;SDS011;8598;50.508;10.436;2023-08-17T03:19:34;8.13;;;5.10;;
16963;SDS011;8598;50.508;10.436;2023-08-17T03:22:00;6.17;;;4.43;;
16963;SDS011;8598;50.508;10.436;2023-08-17T03:24:28;8.07;;;5.13;;
16963;SDS011;8598;50.508;10.436;2023-08-17T03:26:55;8.10;;;5.57;;
16963;SDS011;8598;50.508;10.436;2023-08-17T03:29:22;7.13;;;4.83;;
16963;SDS011;8598;50.508;10.436;2023-08-17T03:31:49;6.47;;;4.53;;
16963;SDS011;8598;50.508;10.436;2023-08-17T03:34:15;4.53;;;4.03;;
16963;SDS011;8598;50.508;10.436;2023-08-17T03:36:42;6.90;;;4.67;;
16963;SDS011;8598;50.508;10.436;2023-08-17T03:39:09;13.27;;;5.57;;
16963;SDS011;8598;50.508;10.436;2023-08-17T03:41:37;9.30;;;5.00;;
16963;SDS011;8598;50.508;10.436;2023-08-17T03:44:04;6.20;;;4.50;;
16963;SDS011;8598;50.508;10.436;2023-08-17T03:46:32;6.80;;;4.53;;
16963;SDS011;8598;50.508;10.436;2023-08-17T03:48:58;8.33;;;5.40;;
16963;SDS011;8598;50.508;10.436;2023-08-17T03:51:25;6.00;;;5.17;;
16963;SDS011;8598;50.508;10.436;2023-08-17T03:53:52;5.93;;;4.40;;
16963;SDS011;8598;50.508;10.436;2023-08-17T03:56:18;26.33;;;5.70;;
16963;SDS011;8598;50.508;10.436;2023-08-17T03:58:46;6.97;;;5.20;;
16963;SDS011;8598;50.508;10.436;2023-08-17T04:01:13;5.40;;;4.83;;
16963;SDS011;8598;50.508;10.436;2023-08-17T04:03:40;6.50;;;4.90;;
16963;SDS011;8598;50.508;10.436;2023-08-17T04:06:07;6.70;;;5.27;;
16963;SDS011;8598;50.508;10.436;2023-08-17T04:08:35;7.93;;;6.27;;
16963;SDS011;8598;50.508;10.436;2023-08-17T04:11:02;7.50;;;5.90;;
16963;SDS011;8598;50.508;10.436;2023-08-17T04:13:29;13.00;;;6.53;;
16963;SDS011;8598;50.508;10.436;2023-08-17T04:15:57;22.23;;;8.13;;
16963;SDS011;8598;50.508;10.436;2023-08-17T04:18:24;35.57;;;8.20;;
16963;SDS011;8598;50.508;10.436;2023-08-17T04:20:51;23.47;;;8.70;;
16963;SDS011;8598;50.508;10.436;2023-08-17T04:23:18;108.67;;;11.17;;
16963;SDS011;8598;50.508;10.436;2023-08-17T04:25:46;41.70;;;9.63;;
16963;SDS011;8598;50.508;10.436;2023-08-17T04:28:13;78.73;;;11.10;;
16963;SDS011;8598;50.508;10.436;2023-08-17T04:30:39;69.67;;;10.83;;
16963;SDS011;8598;50.508;10.436;2023-08-17T04:33:07;116.30;;;11.27;;
16963;SDS011;8598;50.508;10.436;2023-08-17T04:35:34;77.00;;;9.47;;
16963;SDS011;8598;50.508;10.436;2023-08-17T04:38:01;106.87;;;11.87;;
16963;SDS011;8598;50.508;10.436;2023-08-17T04:40:27;121.23;;;12.40;;
16963;SDS011;8598;50.508;10.436;2023-08-17T04:42:54;133.47;;;13.27;;
16963;SDS011;8598;50.508;10.436;2023-08-17T04:45:21;144.63;;;12.83;;
16963;SDS011;8598;50.508;10.436;2023-08-17T04:47:48;112.73;;;11.77;;
16963;SDS011;8598;50.508;10.436;2023-08-17T04:50:16;98.80;;;10.37;;
16963;SDS011;8598;50.508;10.436;2023-08-17T04:52:43;95.00;;;10.37;;
16963;SDS011;8598;50.508;10.436;2023-08-17T04:55:10;76.93;;;11.07;;
16963;SDS011;8598;50.508;10.436;2023-08-17T04:57:36;112.37;;;11.67;;
16963;SDS011;8598;50.508;10.436;2023-08-17T05:00:03;32.07;;;9.50;;
16963;SDS011;8598;50.508;10.436;2023-08-17T05:02:34;30.57;;;9.10;;
16963;SDS011;8598;50.508;10.436;2023-08-17T05:05:02;27.10;;;10.17;;
16963;SDS011;8598;50.508;10.436;2023-08-17T05:07:30;14.20;;;7.73;;
16963;SDS011;8598;50.508;10.436;2023-08-17T05:09:57;17.53;;;7.23;;
16963;SDS011;8598;50.508;10.436;2023-08-17T05:12:23;22.30;;;6.87;;
16963;SDS011;8598;50.508;10.436;2023-08-17T05:14:50;12.30;;;6.53;;
16963;SDS011;8598;50.508;10.436;2023-08-17T05:17:17;35.80;;;8.33;;
16963;SDS011;8598;50.508;10.436;2023-08-17T05:19:44;45.00;;;8.33;;
16963;SDS011;8598;50.508;10.436;2023-08-17T05:22:11;28.90;;;7.63;;
16963;SDS011;8598;50.508;10.436;2023-08-17T05:24:39;26.00;;;6.73;;
16963;SDS011;8598;50.508;10.436;2023-08-17T05:27:06;24.50;;;6.37;;
16963;SDS011;8598;50.508;10.436;2023-08-17T05:29:33;32.63;;;6.80;;
16963;SDS011;8598;50.508;10.436;2023-08-17T05:31:59;37.97;;;6.60;;
16963;SDS011;8598;50.508;10.436;2023-08-17T05:34:26;19.07;;;6.43;;
16963;SDS011;8598;50.508;10.436;2023-08-17T05:36:53;32.43;;;6.20;;
16963;SDS011;8598;50.508;10.436;2023-08-17T05:39:19;15.30;;;5.67;;
16963;SDS011;8598;50.508;10.436;2023-08-17T05:41:47;27.97;;;5.60;;
16963;SDS011;8598;50.508;10.436;2023-08-17T05:44:14;12.30;;;4.97;;
16963;SDS011;8598;50.508;10.436;2023-08-17T05:46:42;5.50;;;4.53;;
16963;SDS011;8598;50.508;10.436;2023-08-17T05:49:09;24.43;;;5.23;;
16963;SDS011;8598;50.508;10.436;2023-08-17T05:51:35;12.37;;;4.30;;
16963;SDS011;8598;50.508;10.436;2023-08-17T05:54:03;9.63;;;4.30;;
16963;SDS011;8598;50.508;10.436;2023-08-17T05:56:30;25.17;;;5.10;;
16963;SDS011;8598;50.508;10.436;2023-08-17T05:58:59;6.80;;;5.13;;
16963;SDS011;8598;50.508;10.436;2023-08-17T06:01:25;10.40;;;4.50;;
16963;SDS011;8598;50.508;10.436;2023-08-17T06:03:52;12.97;;;5.17;;
16963;SDS011;8598;50.508;10.436;2023-08-17T06:06:19;10.87;;;4.20;;
16963;SDS011;8598;50.508;10.436;2023-08-17T06:08:46;4.90;;;3.30;;
16963;SDS011;8598;50.508;10.436;2023-08-17T06:11:12;5.80;;;3.83;;
16963;SDS011;8598;50.508;10.436;2023-08-17T06:13:39;11.27;;;3.60;;
16963;SDS011;8598;50.508;10.436;2023-08-17T06:16:07;7.83;;;3.17;;
16963;SDS011;8598;50.508;10.436;2023-08-17T06:18:35;6.37;;;3.30;;
16963;SDS011;8598;50.508;10.436;2023-08-17T06:21:03;15.83;;;3.77;;
16963;SDS011;8598;50.508;10.436;2023-08-17T06:23:29;33.40;;;3.70;;
16963;SDS011;8598;50.508;10.436;2023-08-17T06:25:56;11.57;;;3.07;;
16963;SDS011;8598;50.508;10.436;2023-08-17T06:28:23;3.90;;;3.40;;
16963;SDS011;8598;50.508;10.436;2023-08-17T06:30:51;6.23;;;3.53;;
16963;SDS011;8598;50.508;10.436;2023-08-17T06:33:19;12.30;;;3.93;;
16963;SDS011;8598;50.508;10.436;2023-08-17T06:35:46;110.57;;;6.97;;
16963;SDS011;8598;50.508;10.436;2023-08-17T06:38:13;19.33;;;4.30;;
16963;SDS011;8598;50.508;10.436;2023-08-17T06:40:39;8.87;;;4.77;;
16963;SDS011;8598;50.508;10.436;2023-08-17T06:43:07;80.60;;;6.73;;
16963;SDS011;8598;50.508;10.436;2023-08-17T06:45:34;6.57;;;4.50;;
16963;SDS011;8598;50.508;10.436;2023-08-17T06:48:01;29.40;;;5.10;;
16963;SDS011;8598;50.508;10.436;2023-08-17T06:50:29;47.57;;;5.43;;
16963;SDS011;8598;50.508;10.436;2023-08-17T06:52:56;12.47;;;4.07;;
16963;SDS011;8598;50.508;10.436;2023-08-17T06:55:23;4.90;;;3.70;;
16963;SDS011;8598;50.508;10.436;2023-08-17T06:57:49;4.07;;;3.53;;
16963;SDS011;8598;50.508;10.436;2023-08-17T07:00:16;9.67;;;3.70;;
16963;SDS011;8598;50.508;10.436;2023-08-17T07:02:45;4.50;;;3.50;;
16963;SDS011;8598;50.508;10.436;2023-08-17T07:05:12;7.57;;;4.60;;
16963;SDS011;8598;50.508;10.436;2023-08-17T07:07:40;7.80;;;5.03;;
16963;SDS011;8598;50.508;10.436;2023-08-17T07:10:08;5.93;;;4.67;;
16963;SDS011;8598;50.508;10.436;2023-08-17T07:12:35;7.83;;;5.30;;
16963;SDS011;8598;50.508;10.436;2023-08-17T07:15:02;4.90;;;4.40;;
16963;SDS011;8598;50.508;10.436;2023-08-17T07:17:29;4.90;;;4.00;;
16963;SDS011;8598;50.508;10.436;2023-08-17T07:19:56;4.90;;;3.50;;
16963;SDS011;8598;50.508;10.436;2023-08-17T07:22:22;3.60;;;3.10;;
16963;SDS011;8598;50.508;10.436;2023-08-17T07:24:50;3.53;;;2.50;;
16963;SDS011;8598;50.508;10.436;2023-08-17T07:27:17;5.77;;;2.87;;
16963;SDS011;8598;50.508;10.436;2023-08-17T07:29:44;2.80;;;2.50;;
16963;SDS011;8598;50.508;10.436;2023-08-17T07:32:10;2.97;;;2.67;;
16963;SDS011;8598;50.508;10.436;2023-08-17T07:34:37;3.67;;;3.00;;
16963;SDS011;8598;50.508;10.436;2023-08-17T07:37:04;3.47;;;2.93;;
16963;SDS011;8598;50.508;10.436;2023-08-17T07:39:31;4.20;;;2.93;;
16963;SDS011;8598;50.508;10.436;2023-08-17T07:41:59;3.53;;;2.80;;
16963;SDS011;8598;50.508;10.436;2023-08-17T07:44:25;5.17;;;3.00;;
16963;SDS011;8598;50.508;10.436;2023-08-17T07:46:53;5.33;;;2.97;;
16963;SDS011;8598;50.508;10.436;2023-08-17T07:49:20;5.43;;;2.93;;
16963;SDS011;8598;50.508;10.436;2023-08-17T07:51:48;6.73;;;2.97;;
16963;SDS011;8598;50.508;10.436;2023-08-17T07:54:15;3.63;;;2.50;;
16963;SDS011;8598;50.508;10.436;2023-08-17T07:56:41;4.63;;;2.77;;
16963;SDS011;8598;50.508;10.436;2023-08-17T07:59:10;6.60;;;2.70;;
16963;SDS011;8598;50.508;10.436;2023-08-17T08:01:36;3.80;;;2.87;;
16963;SDS011;8598;50.508;10.436;2023-08-17T08:04:05;3.87;;;3.10;;
16963;SDS011;8598;50.508;10.436;2023-08-17T08:06:32;2.97;;;2.37;;
16963;SDS011;8598;50.508;10.436;2023-08-17T08:08:58;2.70;;;2.50;;
16963;SDS011;8598;50.508;10.436;2023-08-17T08:11:25;4.40;;;2.53;;
16963;SDS011;8598;50.508;10.436;2023-08-17T08:13:55;2.37;;;2.17;;
16963;SDS011;8598;50.508;10.436;2023-08-17T08:16:23;3.97;;;2.60;;
16963;SDS011;8598;50.508;10.436;2023-08-17T08:18:49;3.77;;;2.90;;
16963;SDS011;8598;50.508;10.436;2023-08-17T08:21:16;4.90;;;3.00;;
16963;SDS011;8598;50.508;10.436;2023-08-17T08:23:43;3.50;;;3.20;;
16963;SDS011;8598;50.508;10.436;2023-08-17T08:26:09;5.17;;;3.70;;
16963;SDS011;8598;50.508;10.436;2023-08-17T08:28:36;5.93;;;3.37;;
16963;SDS011;8598;50.508;10.436;2023-08-17T08:31:03;5.33;;;3.80;;
16963;SDS011;8598;50.508;10.436;2023-08-17T08:33:31;6.30;;;3.87;;
16963;SDS011;8598;50.508;10.436;2023-08-17T08:35:58;7.47;;;5.20;;
16963;SDS011;8598;50.508;10.436;2023-08-17T08:38:24;5.07;;;4.57;;
16963;SDS011;8598;50.508;10.436;2023-08-17T08:40:51;6.50;;;4.73;;
16963;SDS011;8598;50.508;10.436;2023-08-17T08:43:18;4.87;;;4.23;;
16963;SDS011;8598;50.508;10.436;2023-08-17T08:45:45;4.67;;;4.20;;
16963;SDS011;8598;50.508;10.436;2023-08-17T08:48:14;4.80;;;4.23;;
16963;SDS011;8598;50.508;10.436;2023-08-17T08:50:45;4.80;;;4.30;;
16963;SDS011;8598;50.508;10.436;2023-08-17T08:53:14;7.57;;;4.27;;
16963;SDS011;8598;50.508;10.436;2023-08-17T08:55:43;4.27;;;3.87;;
16963;SDS011;8598;50.508;10.436;2023-08-17T08:58:13;5.10;;;4.60;;
16963;SDS011;8598;50.508;10.436;2023-08-17T09:00:42;4.50;;;4.10;;
16963;SDS011;8598;50.508;10.436;2023-08-17T09:03:11;6.32;;;4.55;;
16963;SDS011;8598;50.508;10.436;2023-08-17T09:05:38;4.15;;;3.78;;
16963;SDS011;8598;50.508;10.436;2023-08-17T09:08:09;6.00;;;4.10;;
16963;SDS011;8598;50.508;10.436;2023-08-17T09:10:36;5.63;;;4.90;;
16963;SDS011;8598;50.508;10.436;2023-08-17T09:13:04;6.87;;;5.17;;
16963;SDS011;8598;50.508;10.436;2023-08-17T09:15:30;7.13;;;5.70;;
16963;SDS011;8598;50.508;10.436;2023-08-17T09:17:57;7.63;;;5.80;;
16963;SDS011;8598;50.508;10.436;2023-08-17T09:20:36;7.93;;;6.30;;
16963;SDS011;8598;50.508;10.436;2023-08-17T09:23:06;7.57;;;6.13;;
16963;SDS011;8598;50.508;10.436;2023-08-17T09:25:38;6.87;;;6.10;;
16963;SDS011;8598;50.508;10.436;2023-08-17T09:28:09;7.83;;;6.77;;
16963;SDS011;8598;50.508;10.436;2023-08-17T09:30:48;8.30;;;5.77;;
16963;SDS011;8598;50.508;10.436;2023-08-17T09:33:17;8.20;;;6.87;;
16963;SDS011;8598;50.508;10.436;2023-08-17T09:35:44;8.40;;;6.67;;
16963;SDS011;8598;50.508;10.436;2023-08-17T09:38:12;7.03;;;6.27;;
16963;SDS011;8598;50.508;10.436;2023-08-17T09:40:39;7.23;;;6.00;;
16963;SDS011;8598;50.508;10.436;2023-08-17T09:43:06;10.53;;;6.37;;
16963;SDS011;8598;50.508;10.436;2023-08-17T09:45:32;8.37;;;6.60;;
16963;SDS011;8598;50.508;10.436;2023-08-17T09:47:59;8.67;;;6.30;;
16963;SDS011;8598;50.508;10.436;2023-08-17T09:50:26;8.53;;;6.60;;
16963;SDS011;8598;50.508;10.436;2023-08-17T09:52:53;11.73;;;7.30;;
16963;SDS011;8598;50.508;10.436;2023-08-17T09:55:22;8.27;;;6.87;;
16963;SDS011;8598;50.508;10.436;2023-08-17T09:57:49;7.10;;;6.47;;
16963;SDS011;8598;50.508;10.436;2023-08-17T10:00:16;7.40;;;6.60;;
16963;SDS011;8598;50.508;10.436;2023-08-17T10:02:44;9.60;;;6.50;;
16963;SDS011;8598;50.508;10.436;2023-08-17T10:05:11;8.87;;;6.83;;
16963;SDS011;8598;50.508;10.436;2023-08-17T10:07:41;7.97;;;6.67;;
16963;SDS011;8598;50.508;10.436;2023-08-17T10:10:12;11.47;;;6.37;;
16963;SDS011;8598;50.508;10.436;2023-08-17T10:12:44;13.10;;;7.50;;
16963;SDS011;8598;50.508;10.436;2023-08-17T10:15:15;10.33;;;6.30;;
16963;SDS011;8598;50.508;10.436;2023-08-17T10:17:46;7.30;;;5.97;;
16963;SDS011;8598;50.508;10.436;2023-08-17T10:20:19;10.33;;;5.93;;
16963;SDS011;8598;50.508;10.436;2023-08-17T10:22:47;8.07;;;6.20;;
16963;SDS011;8598;50.508;10.436;2023-08-17T10:25:18;8.70;;;6.13;;
16963;SDS011;8598;50.508;10.436;2023-08-17T10:27:48;8.70;;;6.17;;
16963;SDS011;8598;50.508;10.436;2023-08-17T10:30:16;8.30;;;6.87;;
16963;SDS011;8598;50.508;10.436;2023-08-17T10:32:43;8.97;;;6.53;;
16963;SDS011;8598;50.508;10.436;2023-08-17T10:35:11;8.40;;;6.50;;
16963;SDS011;8598;50.508;10.436;2023-08-17T10:37:40;9.13;;;6.20;;
16963;SDS011;8598;50.508;10.436;2023-08-17T10:40:07;9.70;;;6.60;;
16963;SDS011;8598;50.508;10.436;2023-08-17T10:42:35;7.33;;;6.47;;
16963;SDS011;8598;50.508;10.436;2023-08-17T10:45:24;8.60;;;6.20;;
16963;SDS011;8598;50.508;10.436;2023-08-17T10:47:59;6.27;;;5.67;;
16963;SDS011;8598;50.508;10.436;2023-08-17T10:50:26;8.80;;;6.60;;
16963;SDS011;8598;50.508;10.436;2023-08-17T10:52:53;10.10;;;6.23;;
16963;SDS011;8598;50.508;10.436;2023-08-17T10:55:35;9.33;;;5.40;;
16963;SDS011;8598;50.508;10.436;2023-08-17T10:58:03;8.73;;;5.63;;
16963;SDS011;8598;50.508;10.436;2023-08-17T11:00:33;8.63;;;5.63;;
16963;SDS011;8598;50.508;10.436;2023-08-17T11:03:03;8.77;;;5.70;;
16963;SDS011;8598;50.508;10.436;2023-08-17T11:05:41;6.53;;;5.60;;
16963;SDS011;8598;50.508;10.436;2023-08-17T11:08:09;7.50;;;5.33;;
16963;SDS011;8598;50.508;10.436;2023-08-17T11:10:40;6.77;;;4.93;;
16963;SDS011;8598;50.508;10.436;2023-08-17T11:13:13;5.90;;;4.90;;
16963;SDS011;8598;50.508;10.436;2023-08-17T11:15:41;7.77;;;5.07;;
16963;SDS011;8598;50.508;10.436;2023-08-17T11:18:10;6.30;;;5.40;;
16963;SDS011;8598;50.508;10.436;2023-08-17T11:20:38;7.70;;;5.27;;
16963;SDS011;8598;50.508;10.436;2023-08-17T11:23:06;7.43;;;5.47;;
16963;SDS011;8598;50.508;10.436;2023-08-17T11:25:33;6.40;;;5.63;;
16963;SDS011;8598;50.508;10.436;2023-08-17T11:28:00;6.60;;;5.17;;
16963;SDS011;8598;50.508;10.436;2023-08-17T11:30:28;8.43;;;5.40;;
16963;SDS011;8598;50.508;10.436;2023-08-17T11:32:57;6.77;;;5.17;;
16963;SDS011;8598;50.508;10.436;2023-08-17T11:35:23;6.73;;;5.13;;
16963;SDS011;8598;50.508;10.436;2023-08-17T11:37:50;6.70;;;5.53;;
16963;SDS011;8598;50.508;10.436;2023-08-17T11:40:17;6.40;;;5.80;;
16963;SDS011;8598;50.508;10.436;2023-08-17T11:42:44;7.53;;;5.70;;
16963;SDS011;8598;50.508;10.436;2023-08-17T11:45:12;7.63;;;5.90;;
16963;SDS011;8598;50.508;10.436;2023-08-17T11:47:39;9.07;;;6.20;;
16963;SDS011;8598;50.508;10.436;2023-08-17T11:50:09;8.77;;;5.63;;
16963;SDS011;8598;50.508;10.436;2023-08-17T11:52:37;7.20;;;6.50;;
16963;SDS011;8598;50.508;10.436;2023-08-17T11:55:05;7.53;;;5.63;;
16963;SDS011;8598;50.508;10.436;2023-08-17T11:57:33;7.30;;;5.50;;
16963;SDS011;8598;50.508;10.436;2023-08-17T12:00:00;7.57;;;5.83;;
16963;SDS011;8598;50.508;10.436;2023-08-17T12:02:31;7.80;;;5.47;;
16963;SDS011;8598;50.508;10.436;2023-08-17T12:05:02;7.43;;;5.73;;
16963;SDS011;8598;50.508;10.436;2023-08-17T12:07:32;6.73;;;5.23;;
16963;SDS011;8598;50.508;10.436;2023-08-17T12:09:59;7.13;;;5.50;;
16963;SDS011;8598;50.508;10.436;2023-08-17T12:12:28;6.20;;;5.60;;
16963;SDS011;8598;50.508;10.436;2023-08-17T12:14:54;9.13;;;5.80;;
16963;SDS011;8598;50.508;10.436;2023-08-17T12:17:23;6.87;;;5.57;;
16963;SDS011;8598;50.508;10.436;2023-08-17T12:19:53;7.93;;;5.43;;
16963;SDS011;8598;50.508;10.436;2023-08-17T12:22:23;6.13;;;5.53;;
16963;SDS011;8598;50.508;10.436;2023-08-17T12:24:52;8.40;;;5.47;;
16963;SDS011;8598;50.508;10.436;2023-08-17T12:27:18;7.73;;;5.60;;
16963;SDS011;8598;50.508;10.436;2023-08-17T12:29:47;6.83;;;5.50;;
16963;SDS011;8598;50.508;10.436;2023-08-17T12:32:14;9.80;;;5.70;;
16963;SDS011;8598;50.508;10.436;2023-08-17T12:34:42;7.20;;;5.30;;
16963;SDS011;8598;50.508;10.436;2023-08-17T12:37:09;7.23;;;5.23;;
16963;SDS011;8598;50.508;10.436;2023-08-17T12:39:36;11.93;;;5.77;;
16963;SDS011;8598;50.508;10.436;2023-08-17T12:42:04;6.83;;;5.20;;
16963;SDS011;8598;50.508;10.436;2023-08-17T12:44:32;7.30;;;5.53;;
16963;SDS011;8598;50.508;10.436;2023-08-17T12:46:58;6.10;;;5.50;;
16963;SDS011;8598;50.508;10.436;2023-08-17T12:49:25;5.90;;;5.10;;
16963;SDS011;8598;50.508;10.436;2023-08-17T12:51:52;8.60;;;5.50;;
16963;SDS011;8598;50.508;10.436;2023-08-17T12:54:19;5.87;;;5.27;;
16963;SDS011;8598;50.508;10.436;2023-08-17T12:56:45;5.70;;;4.60;;
16963;SDS011;8598;50.508;10.436;2023-08-17T12:59:13;6.57;;;5.10;;
16963;SDS011;8598;50.508;10.436;2023-08-17T13:01:40;6.83;;;5.40;;
16963;SDS011;8598;50.508;10.436;2023-08-17T13:04:07;5.43;;;4.93;;
16963;SDS011;8598;50.508;10.436;2023-08-17T13:06:33;7.43;;;5.50;;
16963;SDS011;8598;50.508;10.436;2023-08-17T13:09:00;9.47;;;5.40;;
16963;SDS011;8598;50.508;10.436;2023-08-17T13:11:27;7.10;;;5.33;;
16963;SDS011;8598;50.508;10.436;2023-08-17T13:13:54;7.13;;;5.73;;
16963;SDS011;8598;50.508;10.436;2023-08-17T13:16:22;6.77;;;4.90;;
16963;SDS011;8598;50.508;10.436;2023-08-17T13:18:49;5.93;;;5.33;;
16963;SDS011;8598;50.508;10.436;2023-08-17T13:21:16;7.03;;;5.60;;
16963;SDS011;8598;50.508;10.436;2023-08-17T13:23:43;7.10;;;5.27;;
16963;SDS011;8598;50.508;10.436;2023-08-17T13:26:10;6.43;;;5.30;;
16963;SDS011;8598;50.508;10.436;2023-08-17T13:28:36;6.20;;;5.50;;
16963;SDS011;8598;50.508;10.436;2023-08-17T13:31:04;7.80;;;5.90;;
16963;SDS011;8598;50.508;10.436;2023-08-17T13:33:32;5.33;;;4.83;;
16963;SDS011;8598;50.508;10.436;2023-08-17T13:35:58;7.93;;;5.03;;
16963;SDS011;8598;50.508;10.436;2023-08-17T13:38:25;7.03;;;5.07;;
16963;SDS011;8598;50.508;10.436;2023-08-17T13:40:52;6.70;;;4.90;;
16963;SDS011;8598;50.508;10.436;2023-08-17T13:43:19;7.93;;;5.30;;
16963;SDS011;8598;50.508;10.436;2023-08-17T13:45:45;9.73;;;5.50;;
16963;SDS011;8598;50.508;10.436;2023-08-17T13:48:12;7.23;;;4.83;;
16963;SDS011;8598;50.508;10.436;2023-08-17T13:50:40;5.70;;;4.80;;
16963;SDS011;8598;50.508;10.436;2023-08-17T13:53:07;8.20;;;5.30;;
16963;SDS011;8598;50.508;10.436;2023-08-17T13:55:34;5.50;;;5.00;;
16963;SDS011;8598;50.508;10.436;2023-08-17T13:58:00;6.53;;;4.60;;
16963;SDS011;8598;50.508;10.436;2023-08-17T14:00:27;7.10;;;4.93;;
16963;SDS011;8598;50.508;10.436;2023-08-17T14:02:54;7.60;;;6.03;;
16963;SDS011;8598;50.508;10.436;2023-08-17T14:05:21;6.83;;;5.40;;
16963;SDS011;8598;50.508;10.436;2023-08-17T14:07:49;7.07;;;5.83;;
16963;SDS011;8598;50.508;10.436;2023-08-17T14:10:15;6.60;;;5.97;;
16963;SDS011;8598;50.508;10.436;2023-08-17T14:12:42;6.70;;;6.07;;
16963;SDS011;8598;50.508;10.436;2023-08-17T14:15:09;7.13;;;6.13;;
16963;SDS011;8598;50.508;10.436;2023-08-17T14:17:36;7.50;;;5.53;;
16963;SDS011;8598;50.508;10.436;2023-08-17T14:20:03;6.90;;;5.90;;
16963;SDS011;8598;50.508;10.436;2023-08-17T14:22:30;6.67;;;5.80;;
16963;SDS011;8598;50.508;10.436;2023-08-17T14:24:58;10.63;;;5.57;;
16963;SDS011;8598;50.508;10.436;2023-08-17T14:27:25;6.93;;;5.63;;
16963;SDS011;8598;50.508;10.436;2023-08-17T14:29:52;7.00;;;5.57;;
16963;SDS011;8598;50.508;10.436;2023-08-17T14:32:18;6.07;;;5.47;;
16963;SDS011;8598;50.508;10.436;2023-08-17T14:34:45;7.27;;;5.63;;
16963;SDS011;8598;50.508;10.436;2023-08-17T14:37:12;7.43;;;4.73;;
16963;SDS011;8598;50.508;10.436;2023-08-17T14:39:39;6.87;;;4.83;;
16963;SDS011;8598;50.508;10.436;2023-08-17T14:42:07;5.50;;;5.00;;
16963;SDS011;8598;50.508;10.436;2023-08-17T14:44:33;7.17;;;4.83;;
16963;SDS011;8598;50.508;10.436;2023-08-17T14:47:00;7.93;;;5.40;;